createdAt,value
2018-11-27T00:00:06.118Z,181.43
2018-11-27T00:02:47.189Z,186.57
2018-11-27T00:05:28.319Z,222.93
2018-11-27T00:08:09.000Z,214.73
2018-11-27T00:10:50.072Z,204.80
2018-11-27T00:13:31.079Z,201.73
2018-11-27T00:16:12.185Z,193.20
2018-11-27T00:18:53.151Z,200.37
2018-11-27T00:21:33.865Z,216.53
2018-11-27T00:24:15.393Z,222.07
2018-11-27T00:26:56.443Z,209.60
2018-11-27T00:29:37.514Z,203.63
2018-11-27T00:32:18.387Z,182.33
2018-11-27T00:34:59.452Z,193.67
2018-11-27T00:37:40.436Z,188.23
2018-11-27T00:40:21.645Z,179.00
2018-11-27T00:43:02.766Z,199.67
2018-11-27T00:45:43.844Z,196.77
2018-11-27T00:48:25.642Z,186.60
2018-11-27T00:51:06.827Z,183.07
2018-11-27T00:53:47.627Z,185.07
2018-11-27T00:56:29.153Z,185.50
2018-11-27T00:59:10.071Z,177.77
2018-11-27T01:01:51.400Z,175.00
2018-11-27T01:04:32.321Z,174.87
2018-11-27T01:07:14.030Z,160.27
2018-11-27T01:09:54.587Z,168.40
2018-11-27T01:12:35.507Z,173.70
2018-11-27T01:15:16.723Z,169.63
2018-11-27T01:17:58.116Z,165.87
2018-11-27T01:20:39.042Z,171.70
2018-11-27T01:23:20.385Z,174.03
2018-11-27T01:26:01.320Z,168.43
2018-11-27T01:28:42.451Z,167.87
2018-11-27T01:31:24.050Z,173.53
2018-11-27T01:34:05.187Z,170.77
2018-11-27T01:36:46.756Z,163.57
2018-11-27T01:43:38.596Z,161.50
2018-11-27T01:46:19.401Z,148.40
2018-11-27T01:48:59.873Z,142.30
2018-11-27T01:51:40.923Z,150.47
2018-11-27T01:54:22.261Z,154.77
2018-11-27T01:57:03.706Z,174.23
2018-11-27T02:02:28.887Z,171.83
2018-11-27T02:05:09.799Z,198.83
2018-11-27T02:07:51.318Z,171.70
2018-11-27T02:10:32.384Z,173.53
2018-11-27T02:13:13.593Z,176.83
2018-11-27T02:15:54.874Z,164.57
2018-11-27T02:18:36.000Z,160.17
2018-11-27T02:21:17.433Z,139.60
2018-11-27T02:23:58.919Z,138.73
2018-11-27T02:26:40.144Z,129.77
2018-11-27T02:29:22.232Z,139.37
2018-11-27T02:32:03.312Z,115.90
2018-11-27T02:34:45.118Z,119.80
2018-11-27T02:37:26.046Z,127.13
2018-11-27T02:40:06.758Z,114.03
2018-11-27T02:42:47.227Z,118.63
2018-11-27T02:45:28.647Z,112.83
2018-11-27T02:48:09.514Z,246.97
2018-11-27T02:50:50.908Z,105.53
2018-11-27T02:53:31.487Z,99.80
2018-11-27T02:56:12.921Z,88.37
2018-11-27T02:58:53.752Z,66.67
2018-11-27T03:01:35.677Z,63.77
2018-11-27T03:04:16.955Z,65.07
2018-11-27T03:06:57.757Z,59.03
2018-11-27T03:09:39.229Z,64.47
2018-11-27T03:12:19.958Z,59.70
2018-11-27T03:15:01.152Z,59.63
2018-11-27T03:17:41.924Z,60.23
2018-11-27T03:20:23.081Z,65.60
2018-11-27T03:23:04.082Z,57.37
2018-11-27T03:25:45.004Z,59.93
2018-11-27T03:28:26.001Z,62.17
2018-11-27T03:31:06.888Z,60.47
2018-11-27T03:33:47.871Z,54.43
2018-11-27T03:36:28.844Z,52.03
2018-11-27T03:39:09.758Z,46.43
2018-11-27T03:41:51.465Z,47.80
2018-11-27T03:44:32.323Z,49.33
2018-11-27T03:47:14.000Z,48.53
2018-11-27T03:49:54.912Z,44.10
2018-11-27T03:52:36.066Z,47.67
2018-11-27T03:55:17.586Z,44.83
2018-11-27T03:57:58.913Z,49.07
2018-11-27T04:00:40.115Z,46.10
2018-11-27T04:03:21.389Z,47.93
2018-11-27T04:06:02.242Z,44.93
2018-11-27T04:08:43.839Z,43.50
2018-11-27T04:11:25.150Z,40.73
2018-11-27T04:14:06.090Z,42.30
2018-11-27T04:16:46.760Z,42.40
2018-11-27T04:23:52.665Z,47.77
2018-11-27T04:26:33.206Z,43.60
2018-11-27T04:29:14.601Z,39.07
2018-11-27T04:31:55.165Z,40.40
2018-11-27T04:34:36.824Z,41.13
2018-11-27T04:37:17.806Z,40.43
2018-11-27T04:39:58.731Z,41.00
2018-11-27T04:42:39.680Z,40.40
2018-11-27T04:45:20.929Z,172.20
2018-11-27T04:48:01.631Z,44.37
2018-11-27T04:50:42.883Z,36.30
2018-11-27T04:53:23.847Z,102.07
2018-11-27T04:56:05.151Z,38.37
2018-11-27T04:58:46.121Z,51.07
2018-11-27T05:01:27.359Z,137.17
2018-11-27T05:04:08.161Z,39.10
2018-11-27T05:06:49.130Z,52.20
2018-11-27T05:09:30.315Z,34.93
2018-11-27T05:12:11.201Z,40.00
2018-11-27T05:14:52.478Z,34.23
2018-11-27T05:17:33.596Z,46.70
2018-11-27T05:20:14.402Z,35.30
2018-11-27T05:22:55.684Z,579.77
2018-11-27T05:29:49.453Z,35.10
2018-11-27T05:32:30.435Z,32.43
2018-11-27T05:35:11.681Z,36.10
2018-11-27T05:37:52.522Z,32.20
2018-11-27T05:40:33.940Z,36.47
2018-11-27T05:43:15.169Z,32.53
2018-11-27T05:45:56.476Z,33.17
2018-11-27T05:48:36.880Z,30.80
2018-11-27T05:51:17.755Z,31.33
2018-11-27T05:53:58.733Z,29.77
2018-11-27T05:56:39.885Z,34.07
2018-11-27T05:59:21.275Z,31.03
2018-11-27T06:02:02.573Z,32.67
2018-11-27T06:04:43.244Z,32.00
2018-11-27T06:07:24.652Z,30.83
2018-11-27T06:10:05.450Z,30.67
2018-11-27T06:12:47.083Z,60.33
2018-11-27T06:15:28.371Z,33.23
2018-11-27T06:18:09.602Z,30.60
2018-11-27T06:20:51.035Z,29.97
2018-11-27T06:23:32.830Z,30.90
2018-11-27T06:38:41.430Z,38.50
2018-11-27T06:41:22.250Z,32.80
2018-11-27T06:44:04.475Z,34.93
2018-11-27T06:46:45.456Z,31.50
2018-11-27T06:49:26.718Z,33.43
2018-11-27T06:52:07.249Z,31.57
2018-11-27T06:54:48.650Z,30.70
2018-11-27T06:57:29.609Z,30.80
2018-11-27T07:00:10.890Z,29.87
2018-11-27T07:02:51.523Z,29.83
2018-11-27T07:05:32.518Z,29.83
2018-11-27T07:08:13.764Z,29.63
2018-11-27T07:10:54.204Z,55.10
2018-11-27T07:13:35.092Z,31.07
2018-11-27T07:16:16.228Z,33.30
2018-11-27T07:18:57.117Z,29.50
2018-11-27T07:21:38.367Z,30.97
2018-11-27T07:24:20.010Z,30.33
2018-11-27T07:27:01.296Z,30.60
2018-11-27T07:29:41.774Z,29.73
2018-11-27T07:32:22.400Z,29.83
2018-11-27T07:35:03.874Z,31.33
2018-11-27T07:37:45.214Z,36.00
2018-11-27T07:40:25.852Z,45.13
